Turtle River, Minnesota
Current Conditions -  °F | °C
As of 10:33 PM on Saturday 25 Oct 2014 (Local Time) from KBJI Reporting Station
Clear Clear  
Wind Chill: 36°   Ceiling: Unl
Heat Index: 36°   Visibility: 10mi
Dew Point: 24°   Wind: 0mph
Humidity: 61%   Direction: NA
Pressure: 30"   Gusts: NA
Location:  47.5271°N, 94.7611°W
Report Text: KBJI 260333Z AUTO 00000KT 10SM CLR 02/M05 A3000 RMK AO2 T00221046
Loading
Personal Weather Stations






























Interactive Weather Map
Tropical Storm Tracking
New forecast layout! Learn more

10-Day Weather Forecast

Advertisements
Track Severe Weather on mobile